sensor_id;sensor_type;location;lat;lon;timestamp;temperature;humidity
56256;DHT22;57229;51.432;-2.598;2024-03-23T00:53:44;6.10;99.90
56256;DHT22;57229;51.432;-2.598;2024-03-23T00:56:09;6.10;99.90
56256;DHT22;57229;51.432;-2.598;2024-03-23T00:58:35;6.10;99.90
56256;DHT22;57229;51.432;-2.598;2024-03-23T01:01:01;6.10;99.90
56256;DHT22;57229;51.432;-2.598;2024-03-23T01:03:29;6.10;99.90
56256;DHT22;57229;51.432;-2.598;2024-03-23T01:05:54;6.30;99.90
56256;DHT22;57229;51.432;-2.598;2024-03-23T01:08:20;6.30;99.90
56256;DHT22;57229;51.432;-2.598;2024-03-23T01:10:59;6.10;99.90
56256;DHT22;57229;51.432;-2.598;2024-03-23T01:13:26;6.10;99.90
56256;DHT22;57229;51.432;-2.598;2024-03-23T01:15:52;6.10;99.90
56256;DHT22;57229;51.432;-2.598;2024-03-23T01:18:19;6.10;99.90
56256;DHT22;57229;51.432;-2.598;2024-03-23T01:20:45;6.00;99.90
56256;DHT22;57229;51.432;-2.598;2024-03-23T01:23:10;6.00;99.90
56256;DHT22;57229;51.432;-2.598;2024-03-23T01:25:36;6.00;99.90
56256;DHT22;57229;51.432;-2.598;2024-03-23T01:28:02;6.00;99.90
56256;DHT22;57229;51.432;-2.598;2024-03-23T01:30:27;6.00;99.90
56256;DHT22;57229;51.432;-2.598;2024-03-23T01:32:53;6.30;99.90
56256;DHT22;57229;51.432;-2.598;2024-03-23T01:35:19;6.00;99.90
56256;DHT22;57229;51.432;-2.598;2024-03-23T01:37:44;6.00;99.90
56256;DHT22;57229;51.432;-2.598;2024-03-23T01:40:10;5.90;99.90
56256;DHT22;57229;51.432;-2.598;2024-03-23T01:42:39;5.90;99.90
56256;DHT22;57229;51.432;-2.598;2024-03-23T01:45:07;6.00;99.90
56256;DHT22;57229;51.432;-2.598;2024-03-23T01:47:33;6.00;99.90
56256;DHT22;57229;51.432;-2.598;2024-03-23T01:49:59;5.90;99.90
56256;DHT22;57229;51.432;-2.598;2024-03-23T01:52:25;6.00;99.90
56256;DHT22;57229;51.432;-2.598;2024-03-23T01:54:52;6.00;99.90
56256;DHT22;57229;51.432;-2.598;2024-03-23T01:57:18;6.00;99.90
56256;DHT22;57229;51.432;-2.598;2024-03-23T01:59:44;6.00;99.90
56256;DHT22;57229;51.432;-2.598;2024-03-23T02:02:09;6.00;99.90
56256;DHT22;57229;51.432;-2.598;2024-03-23T02:04:35;6.00;99.90
56256;DHT22;57229;51.432;-2.598;2024-03-23T02:07:00;6.00;99.90
56256;DHT22;57229;51.432;-2.598;2024-03-23T02:09:26;5.90;99.90
56256;DHT22;57229;51.432;-2.598;2024-03-23T02:11:52;5.90;99.90
56256;DHT22;57229;51.432;-2.598;2024-03-23T02:14:17;6.40;99.90
56256;DHT22;57229;51.432;-2.598;2024-03-23T02:16:43;5.90;99.90
56256;DHT22;57229;51.432;-2.598;2024-03-23T02:19:08;5.90;99.90
56256;DHT22;57229;51.432;-2.598;2024-03-23T02:21:34;5.80;99.90
56256;DHT22;57229;51.432;-2.598;2024-03-23T02:24:00;5.80;99.90
56256;DHT22;57229;51.432;-2.598;2024-03-23T02:26:26;5.80;99.90
56256;DHT22;57229;51.432;-2.598;2024-03-23T02:28:52;5.80;99.90
56256;DHT22;57229;51.432;-2.598;2024-03-23T02:31:17;5.80;99.90
56256;DHT22;57229;51.432;-2.598;2024-03-23T02:33:43;5.80;99.90
56256;DHT22;57229;51.432;-2.598;2024-03-23T02:36:08;5.80;99.90
56256;DHT22;57229;51.432;-2.598;2024-03-23T02:38:34;5.80;99.90
56256;DHT22;57229;51.432;-2.598;2024-03-23T02:41:03;5.80;99.90
56256;DHT22;57229;51.432;-2.598;2024-03-23T02:43:29;5.70;99.90
56256;DHT22;57229;51.432;-2.598;2024-03-23T02:45:55;5.70;99.90
56256;DHT22;57229;51.432;-2.598;2024-03-23T02:48:20;6.00;99.90
56256;DHT22;57229;51.432;-2.598;2024-03-23T02:50:46;5.70;99.90
56256;DHT22;57229;51.432;-2.598;2024-03-23T02:53:11;5.60;99.90
56256;DHT22;57229;51.432;-2.598;2024-03-23T02:55:37;5.70;99.90
56256;DHT22;57229;51.432;-2.598;2024-03-23T02:58:03;5.70;99.90
56256;DHT22;57229;51.432;-2.598;2024-03-23T03:00:28;5.80;99.90
56256;DHT22;57229;51.432;-2.598;2024-03-23T03:02:54;5.70;99.90
56256;DHT22;57229;51.432;-2.598;2024-03-23T03:05:20;5.70;99.90
56256;DHT22;57229;51.432;-2.598;2024-03-23T03:07:46;5.70;99.90
56256;DHT22;57229;51.432;-2.598;2024-03-23T03:10:12;5.70;99.90
56256;DHT22;57229;51.432;-2.598;2024-03-23T03:12:37;5.60;99.90
56256;DHT22;57229;51.432;-2.598;2024-03-23T03:15:04;5.60;99.90
56256;DHT22;57229;51.432;-2.598;2024-03-23T03:17:30;5.60;99.90
56256;DHT22;57229;51.432;-2.598;2024-03-23T03:19:56;5.60;99.90
56256;DHT22;57229;51.432;-2.598;2024-03-23T03:22:22;5.70;99.90
56256;DHT22;57229;51.432;-2.598;2024-03-23T03:24:48;5.60;99.90
56256;DHT22;57229;51.432;-2.598;2024-03-23T03:27:13;5.60;99.90
56256;DHT22;57229;51.432;-2.598;2024-03-23T03:29:39;5.70;99.90
56256;DHT22;57229;51.432;-2.598;2024-03-23T03:32:05;5.60;99.90
56256;DHT22;57229;51.432;-2.598;2024-03-23T03:34:31;5.60;99.90
56256;DHT22;57229;51.432;-2.598;2024-03-23T03:36:57;5.70;99.90
56256;DHT22;57229;51.432;-2.598;2024-03-23T03:39:23;5.70;99.90
56256;DHT22;57229;51.432;-2.598;2024-03-23T03:41:49;5.70;99.90
56256;DHT22;57229;51.432;-2.598;2024-03-23T03:44:15;5.70;99.90
56256;DHT22;57229;51.432;-2.598;2024-03-23T03:46:40;5.80;99.90
56256;DHT22;57229;51.432;-2.598;2024-03-23T03:49:06;5.70;99.90
56256;DHT22;57229;51.432;-2.598;2024-03-23T03:51:31;5.70;99.90
56256;DHT22;57229;51.432;-2.598;2024-03-23T03:53:57;5.80;99.90
56256;DHT22;57229;51.432;-2.598;2024-03-23T03:56:22;5.70;99.90
56256;DHT22;57229;51.432;-2.598;2024-03-23T03:58:48;5.80;99.90
56256;DHT22;57229;51.432;-2.598;2024-03-23T04:01:14;5.70;99.90
56256;DHT22;57229;51.432;-2.598;2024-03-23T04:03:39;5.70;99.90
56256;DHT22;57229;51.432;-2.598;2024-03-23T04:06:09;6.50;99.90
56256;DHT22;57229;51.432;-2.598;2024-03-23T04:08:35;5.70;99.90
56256;DHT22;57229;51.432;-2.598;2024-03-23T04:11:01;6.50;99.90
56256;DHT22;57229;51.432;-2.598;2024-03-23T04:13:27;5.60;99.90
56256;DHT22;57229;51.432;-2.598;2024-03-23T04:15:56;5.60;99.90
56256;DHT22;57229;51.432;-2.598;2024-03-23T04:18:22;5.60;99.90
56256;DHT22;57229;51.432;-2.598;2024-03-23T04:20:51;5.60;99.90
56256;DHT22;57229;51.432;-2.598;2024-03-23T04:23:17;5.60;99.90
56256;DHT22;57229;51.432;-2.598;2024-03-23T04:25:43;5.50;99.90
56256;DHT22;57229;51.432;-2.598;2024-03-23T04:28:08;5.50;99.90
56256;DHT22;57229;51.432;-2.598;2024-03-23T04:30:34;5.50;99.90
56256;DHT22;57229;51.432;-2.598;2024-03-23T04:32:59;5.50;99.90
56256;DHT22;57229;51.432;-2.598;2024-03-23T04:35:26;5.50;99.90
56256;DHT22;57229;51.432;-2.598;2024-03-23T04:37:53;5.50;99.90
56256;DHT22;57229;51.432;-2.598;2024-03-23T04:40:18;5.50;99.90
56256;DHT22;57229;51.432;-2.598;2024-03-23T04:42:44;5.40;99.90
56256;DHT22;57229;51.432;-2.598;2024-03-23T04:45:09;5.40;99.90
56256;DHT22;57229;51.432;-2.598;2024-03-23T04:47:37;5.40;99.90
56256;DHT22;57229;51.432;-2.598;2024-03-23T04:50:06;5.40;99.90
56256;DHT22;57229;51.432;-2.598;2024-03-23T04:52:31;5.30;99.90
56256;DHT22;57229;51.432;-2.598;2024-03-23T04:54:57;5.30;99.90
56256;DHT22;57229;51.432;-2.598;2024-03-23T04:57:23;5.30;99.90
56256;DHT22;57229;51.432;-2.598;2024-03-23T04:59:48;5.30;99.90
56256;DHT22;57229;51.432;-2.598;2024-03-23T05:02:14;5.30;99.90
56256;DHT22;57229;51.432;-2.598;2024-03-23T05:04:40;5.20;99.90
56256;DHT22;57229;51.432;-2.598;2024-03-23T05:07:06;5.20;99.90
56256;DHT22;57229;51.432;-2.598;2024-03-23T05:09:32;5.20;99.90
56256;DHT22;57229;51.432;-2.598;2024-03-23T05:12:02;5.20;99.90
56256;DHT22;57229;51.432;-2.598;2024-03-23T05:14:28;5.20;99.90
56256;DHT22;57229;51.432;-2.598;2024-03-23T05:16:54;5.30;99.90
56256;DHT22;57229;51.432;-2.598;2024-03-23T05:19:19;5.30;99.90
56256;DHT22;57229;51.432;-2.598;2024-03-23T05:21:45;5.30;99.90
56256;DHT22;57229;51.432;-2.598;2024-03-23T05:24:11;5.30;99.90
56256;DHT22;57229;51.432;-2.598;2024-03-23T05:26:37;5.40;99.90
56256;DHT22;57229;51.432;-2.598;2024-03-23T05:29:03;5.40;99.90
56256;DHT22;57229;51.432;-2.598;2024-03-23T05:31:31;5.30;99.90
56256;DHT22;57229;51.432;-2.598;2024-03-23T05:33:57;5.30;99.90
56256;DHT22;57229;51.432;-2.598;2024-03-23T05:36:23;5.30;99.90
56256;DHT22;57229;51.432;-2.598;2024-03-23T05:38:50;5.30;99.90
56256;DHT22;57229;51.432;-2.598;2024-03-23T05:41:16;5.40;99.90
56256;DHT22;57229;51.432;-2.598;2024-03-23T05:43:41;5.40;99.90
56256;DHT22;57229;51.432;-2.598;2024-03-23T05:46:07;5.40;99.90
56256;DHT22;57229;51.432;-2.598;2024-03-23T05:48:36;5.50;99.90
56256;DHT22;57229;51.432;-2.598;2024-03-23T05:51:01;5.40;99.90
56256;DHT22;57229;51.432;-2.598;2024-03-23T05:53:27;5.50;99.90
56256;DHT22;57229;51.432;-2.598;2024-03-23T05:56:03;5.50;99.90
56256;DHT22;57229;51.432;-2.598;2024-03-23T05:58:32;5.60;99.90
56256;DHT22;57229;51.432;-2.598;2024-03-23T06:00:59;5.60;99.90
56256;DHT22;57229;51.432;-2.598;2024-03-23T06:03:29;5.60;99.90
56256;DHT22;57229;51.432;-2.598;2024-03-23T06:05:55;5.60;99.90
56256;DHT22;57229;51.432;-2.598;2024-03-23T06:08:21;5.60;99.90
56256;DHT22;57229;51.432;-2.598;2024-03-23T06:10:47;5.60;99.90
56256;DHT22;57229;51.432;-2.598;2024-03-23T06:13:13;5.60;99.90
56256;DHT22;57229;51.432;-2.598;2024-03-23T06:15:39;5.60;99.90
56256;DHT22;57229;51.432;-2.598;2024-03-23T06:18:05;5.70;99.90
56256;DHT22;57229;51.432;-2.598;2024-03-23T06:20:34;5.70;99.90
56256;DHT22;57229;51.432;-2.598;2024-03-23T06:23:03;5.80;99.90
56256;DHT22;57229;51.432;-2.598;2024-03-23T06:25:29;5.80;99.90
56256;DHT22;57229;51.432;-2.598;2024-03-23T06:27:55;5.80;99.90
56256;DHT22;57229;51.432;-2.598;2024-03-23T06:30:20;5.80;99.90
56256;DHT22;57229;51.432;-2.598;2024-03-23T06:32:46;5.80;99.90
56256;DHT22;57229;51.432;-2.598;2024-03-23T06:35:11;5.80;99.90
56256;DHT22;57229;51.432;-2.598;2024-03-23T06:37:37;5.80;99.90
56256;DHT22;57229;51.432;-2.598;2024-03-23T06:40:04;5.80;99.90
56256;DHT22;57229;51.432;-2.598;2024-03-23T06:42:33;5.80;99.90
56256;DHT22;57229;51.432;-2.598;2024-03-23T06:44:59;5.80;99.90
56256;DHT22;57229;51.432;-2.598;2024-03-23T06:47:25;5.80;99.90
56256;DHT22;57229;51.432;-2.598;2024-03-23T06:49:51;6.00;99.90
56256;DHT22;57229;51.432;-2.598;2024-03-23T06:52:16;5.90;99.90
56256;DHT22;57229;51.432;-2.598;2024-03-23T06:54:42;5.90;99.90
56256;DHT22;57229;51.432;-2.598;2024-03-23T06:57:10;6.00;99.90
56256;DHT22;57229;51.432;-2.598;2024-03-23T06:59:37;6.00;99.90
56256;DHT22;57229;51.432;-2.598;2024-03-23T07:02:04;6.10;99.90
56256;DHT22;57229;51.432;-2.598;2024-03-23T07:04:30;6.20;99.90
56256;DHT22;57229;51.432;-2.598;2024-03-23T07:06:56;6.30;99.90
56256;DHT22;57229;51.432;-2.598;2024-03-23T07:09:21;6.60;99.90
56256;DHT22;57229;51.432;-2.598;2024-03-23T07:11:53;6.70;99.90
56256;DHT22;57229;51.432;-2.598;2024-03-23T07:14:18;6.90;99.90
56256;DHT22;57229;51.432;-2.598;2024-03-23T07:16:44;7.00;99.90
56256;DHT22;57229;51.432;-2.598;2024-03-23T07:19:10;7.10;99.90
56256;DHT22;57229;51.432;-2.598;2024-03-23T07:21:35;7.30;99.90
56256;DHT22;57229;51.432;-2.598;2024-03-23T07:24:02;7.50;99.90
56256;DHT22;57229;51.432;-2.598;2024-03-23T07:26:28;7.60;99.90
56256;DHT22;57229;51.432;-2.598;2024-03-23T07:28:53;7.70;99.90
56256;DHT22;57229;51.432;-2.598;2024-03-23T07:31:19;7.80;99.90
56256;DHT22;57229;51.432;-2.598;2024-03-23T07:33:46;7.80;99.90
56256;DHT22;57229;51.432;-2.598;2024-03-23T07:36:12;8.10;99.90
56256;DHT22;57229;51.432;-2.598;2024-03-23T07:38:43;8.20;99.90
56256;DHT22;57229;51.432;-2.598;2024-03-23T07:41:17;8.50;99.90
56256;DHT22;57229;51.432;-2.598;2024-03-23T07:43:44;8.50;99.90
56256;DHT22;57229;51.432;-2.598;2024-03-23T07:46:10;8.30;99.90
56256;DHT22;57229;51.432;-2.598;2024-03-23T07:48:58;8.00;99.90
56256;DHT22;57229;51.432;-2.598;2024-03-23T07:51:24;7.80;99.90
56256;DHT22;57229;51.432;-2.598;2024-03-23T07:53:50;7.70;99.90
56256;DHT22;57229;51.432;-2.598;2024-03-23T07:56:16;7.60;99.90
56256;DHT22;57229;51.432;-2.598;2024-03-23T07:58:43;7.60;99.90
56256;DHT22;57229;51.432;-2.598;2024-03-23T08:01:13;7.70;99.90
56256;DHT22;57229;51.432;-2.598;2024-03-23T08:03:41;7.80;99.90
56256;DHT22;57229;51.432;-2.598;2024-03-23T08:08:37;8.10;99.90
56256;DHT22;57229;51.432;-2.598;2024-03-23T08:11:03;8.30;99.90
56256;DHT22;57229;51.432;-2.598;2024-03-23T08:13:29;8.90;99.90
56256;DHT22;57229;51.432;-2.598;2024-03-23T08:15:59;8.40;99.90
56256;DHT22;57229;51.432;-2.598;2024-03-23T08:18:26;8.50;99.90
56256;DHT22;57229;51.432;-2.598;2024-03-23T08:20:58;8.90;99.90
56256;DHT22;57229;51.432;-2.598;2024-03-23T08:23:25;9.20;99.90
56256;DHT22;57229;51.432;-2.598;2024-03-23T08:25:51;8.50;99.90
56256;DHT22;57229;51.432;-2.598;2024-03-23T08:28:17;8.40;99.90
56256;DHT22;57229;51.432;-2.598;2024-03-23T08:30:43;9.30;99.90
56256;DHT22;57229;51.432;-2.598;2024-03-23T08:33:08;8.60;99.90
56256;DHT22;57229;51.432;-2.598;2024-03-23T08:35:34;8.70;99.90
56256;DHT22;57229;51.432;-2.598;2024-03-23T08:38:00;8.70;99.90
56256;DHT22;57229;51.432;-2.598;2024-03-23T08:40:26;8.70;99.90
56256;DHT22;57229;51.432;-2.598;2024-03-23T08:42:51;8.70;99.90
56256;DHT22;57229;51.432;-2.598;2024-03-23T08:45:17;9.60;99.90
56256;DHT22;57229;51.432;-2.598;2024-03-23T08:47:42;8.60;99.90
56256;DHT22;57229;51.432;-2.598;2024-03-23T08:50:08;9.20;99.90
56256;DHT22;57229;51.432;-2.598;2024-03-23T08:52:34;8.60;99.90
56256;DHT22;57229;51.432;-2.598;2024-03-23T08:54:59;8.70;99.90
56256;DHT22;57229;51.432;-2.598;2024-03-23T08:57:25;8.80;99.90
56256;DHT22;57229;51.432;-2.598;2024-03-23T08:59:51;8.80;99.90
56256;DHT22;57229;51.432;-2.598;2024-03-23T09:02:16;8.90;99.90
56256;DHT22;57229;51.432;-2.598;2024-03-23T09:04:42;9.30;99.90
56256;DHT22;57229;51.432;-2.598;2024-03-23T09:07:07;8.90;99.90
56256;DHT22;57229;51.432;-2.598;2024-03-23T09:09:33;8.90;99.90
56256;DHT22;57229;51.432;-2.598;2024-03-23T09:11:59;9.10;99.90
56256;DHT22;57229;51.432;-2.598;2024-03-23T09:14:24;9.40;99.90
56256;DHT22;57229;51.432;-2.598;2024-03-23T09:16:50;9.40;99.50
56256;DHT22;57229;51.432;-2.598;2024-03-23T09:19:17;9.40;99.50
56256;DHT22;57229;51.432;-2.598;2024-03-23T09:21:43;10.10;99.70
56256;DHT22;57229;51.432;-2.598;2024-03-23T09:24:08;9.70;99.10
56256;DHT22;57229;51.432;-2.598;2024-03-23T09:26:34;9.60;99.60
56256;DHT22;57229;51.432;-2.598;2024-03-23T09:28:59;10.80;98.60
56256;DHT22;57229;51.432;-2.598;2024-03-23T09:31:25;11.90;97.60
56256;DHT22;57229;51.432;-2.598;2024-03-23T09:33:51;12.00;97.10
56256;DHT22;57229;51.432;-2.598;2024-03-23T09:36:16;12.90;96.00
56256;DHT22;57229;51.432;-2.598;2024-03-23T09:38:42;12.80;95.30
56256;DHT22;57229;51.432;-2.598;2024-03-23T09:41:08;13.50;94.50
56256;DHT22;57229;51.432;-2.598;2024-03-23T09:43:35;12.00;94.40
56256;DHT22;57229;51.432;-2.598;2024-03-23T09:46:01;11.10;95.80
56256;DHT22;57229;51.432;-2.598;2024-03-23T09:48:28;10.60;97.20
56256;DHT22;57229;51.432;-2.598;2024-03-23T09:50:54;10.30;97.80
56256;DHT22;57229;51.432;-2.598;2024-03-23T09:53:19;10.90;97.30
56256;DHT22;57229;51.432;-2.598;2024-03-23T09:55:45;11.50;96.40
56256;DHT22;57229;51.432;-2.598;2024-03-23T09:58:17;11.30;96.20
56256;DHT22;57229;51.432;-2.598;2024-03-23T10:00:44;10.90;97.10
56256;DHT22;57229;51.432;-2.598;2024-03-23T10:03:09;11.20;97.90
56256;DHT22;57229;51.432;-2.598;2024-03-23T10:05:37;11.60;98.50
56256;DHT22;57229;51.432;-2.598;2024-03-23T10:10:41;11.90;96.40
56256;DHT22;57229;51.432;-2.598;2024-03-23T10:13:07;12.30;95.90
56256;DHT22;57229;51.432;-2.598;2024-03-23T10:15:36;11.60;96.90
56256;DHT22;57229;51.432;-2.598;2024-03-23T10:18:17;11.60;97.50
56256;DHT22;57229;51.432;-2.598;2024-03-23T10:20:43;13.00;95.40
56256;DHT22;57229;51.432;-2.598;2024-03-23T10:23:18;14.20;94.40
56256;DHT22;57229;51.432;-2.598;2024-03-23T10:25:44;15.30;91.90
56256;DHT22;57229;51.432;-2.598;2024-03-23T10:28:11;15.20;91.30
56256;DHT22;57229;51.432;-2.598;2024-03-23T10:30:37;16.00;90.30
56256;DHT22;57229;51.432;-2.598;2024-03-23T10:33:12;15.90;89.50
56256;DHT22;57229;51.432;-2.598;2024-03-23T10:35:38;15.10;91.00
56256;DHT22;57229;51.432;-2.598;2024-03-23T10:38:05;14.60;91.20
56256;DHT22;57229;51.432;-2.598;2024-03-23T10:40:34;13.50;92.50
56256;DHT22;57229;51.432;-2.598;2024-03-23T10:43:00;12.60;94.00
56256;DHT22;57229;51.432;-2.598;2024-03-23T10:45:27;11.60;95.70
56256;DHT22;57229;51.432;-2.598;2024-03-23T10:47:53;10.80;97.00
56256;DHT22;57229;51.432;-2.598;2024-03-23T10:50:19;10.30;98.90
56256;DHT22;57229;51.432;-2.598;2024-03-23T10:52:46;10.10;99.90
56256;DHT22;57229;51.432;-2.598;2024-03-23T10:55:14;10.00;99.90
56256;DHT22;57229;51.432;-2.598;2024-03-23T10:57:48;9.90;99.90
56256;DHT22;57229;51.432;-2.598;2024-03-23T11:00:15;9.70;99.90
56256;DHT22;57229;51.432;-2.598;2024-03-23T11:02:41;9.30;99.90
56256;DHT22;57229;51.432;-2.598;2024-03-23T11:05:36;8.50;99.90
56256;DHT22;57229;51.432;-2.598;2024-03-23T11:08:02;8.10;99.90
56256;DHT22;57229;51.432;-2.598;2024-03-23T11:10:30;7.70;99.90
56256;DHT22;57229;51.432;-2.598;2024-03-23T11:13:22;7.60;99.90
56256;DHT22;57229;51.432;-2.598;2024-03-23T11:15:48;7.90;99.90
56256;DHT22;57229;51.432;-2.598;2024-03-23T11:18:20;8.40;99.90
56256;DHT22;57229;51.432;-2.598;2024-03-23T11:20:46;9.60;99.90
56256;DHT22;57229;51.432;-2.598;2024-03-23T11:23:27;11.90;99.90
56256;DHT22;57229;51.432;-2.598;2024-03-23T11:25:53;14.20;98.20
56256;DHT22;57229;51.432;-2.598;2024-03-23T11:28:18;15.20;96.00
56256;DHT22;57229;51.432;-2.598;2024-03-23T11:30:44;16.30;95.00
56256;DHT22;57229;51.432;-2.598;2024-03-23T11:33:09;17.50;92.40
56256;DHT22;57229;51.432;-2.598;2024-03-23T11:35:39;18.10;90.60
56256;DHT22;57229;51.432;-2.598;2024-03-23T11:38:11;17.60;89.70
56256;DHT22;57229;51.432;-2.598;2024-03-23T11:40:39;18.10;90.00
56256;DHT22;57229;51.432;-2.598;2024-03-23T11:43:07;17.70;88.30
56256;DHT22;57229;51.432;-2.598;2024-03-23T11:45:35;17.70;87.50
56256;DHT22;57229;51.432;-2.598;2024-03-23T11:48:06;17.00;88.60
56256;DHT22;57229;51.432;-2.598;2024-03-23T11:50:33;16.20;89.30
56256;DHT22;57229;51.432;-2.598;2024-03-23T11:53:18;16.70;91.10
56256;DHT22;57229;51.432;-2.598;2024-03-23T11:55:52;18.10;87.40
56256;DHT22;57229;51.432;-2.598;2024-03-23T11:58:19;18.70;84.10
56256;DHT22;57229;51.432;-2.598;2024-03-23T12:01:03;18.60;82.40
56256;DHT22;57229;51.432;-2.598;2024-03-23T12:03:31;18.80;82.80
56256;DHT22;57229;51.432;-2.598;2024-03-23T12:05:59;19.50;81.30
56256;DHT22;57229;51.432;-2.598;2024-03-23T12:08:31;19.20;79.40
56256;DHT22;57229;51.432;-2.598;2024-03-23T12:11:08;17.40;84.40
56256;DHT22;57229;51.432;-2.598;2024-03-23T12:13:35;16.80;84.50
56256;DHT22;57229;51.432;-2.598;2024-03-23T12:16:10;16.90;84.80
56256;DHT22;57229;51.432;-2.598;2024-03-23T12:18:37;15.60;86.30
56256;DHT22;57229;51.432;-2.598;2024-03-23T12:21:03;14.20;90.60
56256;DHT22;57229;51.432;-2.598;2024-03-23T12:23:28;13.00;91.30
56256;DHT22;57229;51.432;-2.598;2024-03-23T12:25:54;12.20;93.30
56256;DHT22;57229;51.432;-2.598;2024-03-23T12:28:19;11.90;95.50
56256;DHT22;57229;51.432;-2.598;2024-03-23T12:30:45;12.20;95.50
56256;DHT22;57229;51.432;-2.598;2024-03-23T12:33:11;11.00;96.40
56256;DHT22;57229;51.432;-2.598;2024-03-23T12:35:36;11.50;97.80
56256;DHT22;57229;51.432;-2.598;2024-03-23T12:38:03;10.60;96.60
56256;DHT22;57229;51.432;-2.598;2024-03-23T12:40:29;10.30;97.40
56256;DHT22;57229;51.432;-2.598;2024-03-23T12:42:55;9.80;99.40
56256;DHT22;57229;51.432;-2.598;2024-03-23T12:45:21;9.50;99.90
56256;DHT22;57229;51.432;-2.598;2024-03-23T12:47:47;10.10;99.90
56256;DHT22;57229;51.432;-2.598;2024-03-23T12:50:13;12.70;99.40
56256;DHT22;57229;51.432;-2.598;2024-03-23T12:52:38;15.00;94.80
56256;DHT22;57229;51.432;-2.598;2024-03-23T12:55:04;16.80;91.90
56256;DHT22;57229;51.432;-2.598;2024-03-23T12:57:31;18.00;90.60
56256;DHT22;57229;51.432;-2.598;2024-03-23T12:59:57;19.00;86.00
56256;DHT22;57229;51.432;-2.598;2024-03-23T13:02:23;17.60;87.40
56256;DHT22;57229;51.432;-2.598;2024-03-23T13:04:55;17.40;87.90
56256;DHT22;57229;51.432;-2.598;2024-03-23T13:07:22;17.40;88.50
56256;DHT22;57229;51.432;-2.598;2024-03-23T13:09:50;17.70;87.50
56256;DHT22;57229;51.432;-2.598;2024-03-23T13:12:17;17.10;86.90
56256;DHT22;57229;51.432;-2.598;2024-03-23T13:14:44;16.20;88.80
56256;DHT22;57229;51.432;-2.598;2024-03-23T13:17:10;16.60;88.20
56256;DHT22;57229;51.432;-2.598;2024-03-23T13:19:35;15.80;88.80
56256;DHT22;57229;51.432;-2.598;2024-03-23T13:22:01;15.10;90.50
56256;DHT22;57229;51.432;-2.598;2024-03-23T13:24:30;15.50;90.90
56256;DHT22;57229;51.432;-2.598;2024-03-23T13:26:57;15.90;88.40
56256;DHT22;57229;51.432;-2.598;2024-03-23T13:29:23;15.40;87.90
56256;DHT22;57229;51.432;-2.598;2024-03-23T13:31:50;15.30;88.90
56256;DHT22;57229;51.432;-2.598;2024-03-23T13:34:16;15.30;89.00
56256;DHT22;57229;51.432;-2.598;2024-03-23T13:36:46;14.30;90.10
56256;DHT22;57229;51.432;-2.598;2024-03-23T13:39:12;13.50;92.00
56256;DHT22;57229;51.432;-2.598;2024-03-23T13:41:43;13.50;92.50
56256;DHT22;57229;51.432;-2.598;2024-03-23T13:44:09;13.40;92.00
56256;DHT22;57229;51.432;-2.598;2024-03-23T13:46:41;13.20;92.60
56256;DHT22;57229;51.432;-2.598;2024-03-23T13:49:26;13.10;92.40
56256;DHT22;57229;51.432;-2.598;2024-03-23T13:51:56;13.00;92.50
56256;DHT22;57229;51.432;-2.598;2024-03-23T13:54:23;12.60;92.40
56256;DHT22;57229;51.432;-2.598;2024-03-23T13:56:50;12.90;93.00
56256;DHT22;57229;51.432;-2.598;2024-03-23T13:59:16;13.20;92.60
56256;DHT22;57229;51.432;-2.598;2024-03-23T14:01:42;13.10;92.10
56256;DHT22;57229;51.432;-2.598;2024-03-23T14:04:08;13.60;91.80
56256;DHT22;57229;51.432;-2.598;2024-03-23T14:06:33;14.40;91.20
56256;DHT22;57229;51.432;-2.598;2024-03-23T14:08:59;14.10;91.30
56256;DHT22;57229;51.432;-2.598;2024-03-23T14:11:24;15.50;91.20
56256;DHT22;57229;51.432;-2.598;2024-03-23T14:13:52;16.10;87.40
56256;DHT22;57229;51.432;-2.598;2024-03-23T14:16:18;17.10;82.70
56256;DHT22;57229;51.432;-2.598;2024-03-23T14:18:46;17.60;82.30
56256;DHT22;57229;51.432;-2.598;2024-03-23T14:21:12;18.60;81.10
56256;DHT22;57229;51.432;-2.598;2024-03-23T14:23:37;19.50;78.90
56256;DHT22;57229;51.432;-2.598;2024-03-23T14:26:03;19.10;77.60
56256;DHT22;57229;51.432;-2.598;2024-03-23T14:28:29;18.50;78.40
56256;DHT22;57229;51.432;-2.598;2024-03-23T14:30:55;18.40;77.60
56256;DHT22;57229;51.432;-2.598;2024-03-23T14:33:21;18.60;79.60
56256;DHT22;57229;51.432;-2.598;2024-03-23T14:35:56;18.20;79.40
56256;DHT22;57229;51.432;-2.598;2024-03-23T14:38:23;16.20;84.70
56256;DHT22;57229;51.432;-2.598;2024-03-23T14:40:49;14.70;90.10
56256;DHT22;57229;51.432;-2.598;2024-03-23T14:43:14;13.80;92.00
56256;DHT22;57229;51.432;-2.598;2024-03-23T14:48:34;13.30;93.10
56256;DHT22;57229;51.432;-2.598;2024-03-23T14:51:00;14.90;90.50
56256;DHT22;57229;51.432;-2.598;2024-03-23T14:53:26;15.90;88.00
56256;DHT22;57229;51.432;-2.598;2024-03-23T14:55:56;16.80;80.70
56256;DHT22;57229;51.432;-2.598;2024-03-23T14:58:22;17.40;82.00
56256;DHT22;57229;51.432;-2.598;2024-03-23T15:00:48;18.60;78.60
56256;DHT22;57229;51.432;-2.598;2024-03-23T15:03:14;18.70;75.40
56256;DHT22;57229;51.432;-2.598;2024-03-23T15:05:40;18.40;76.40
56256;DHT22;57229;51.432;-2.598;2024-03-23T15:08:06;18.10;77.20
56256;DHT22;57229;51.432;-2.598;2024-03-23T15:10:33;17.50;77.70
56256;DHT22;57229;51.432;-2.598;2024-03-23T15:12:58;17.50;77.70
56256;DHT22;57229;51.432;-2.598;2024-03-23T15:15:24;17.60;78.60
56256;DHT22;57229;51.432;-2.598;2024-03-23T15:17:49;17.80;77.90
56256;DHT22;57229;51.432;-2.598;2024-03-23T15:20:15;17.70;77.30
56256;DHT22;57229;51.432;-2.598;2024-03-23T15:22:41;17.50;77.60
56256;DHT22;57229;51.432;-2.598;2024-03-23T15:25:08;17.60;76.50
56256;DHT22;57229;51.432;-2.598;2024-03-23T15:27:33;16.80;77.30
56256;DHT22;57229;51.432;-2.598;2024-03-23T15:29:59;16.40;78.60
56256;DHT22;57229;51.432;-2.598;2024-03-23T15:32:25;16.40;79.60
56256;DHT22;57229;51.432;-2.598;2024-03-23T15:34:50;17.10;78.00
56256;DHT22;57229;51.432;-2.598;2024-03-23T15:37:17;17.40;77.20
56256;DHT22;57229;51.432;-2.598;2024-03-23T15:39:43;18.20;74.90
56256;DHT22;57229;51.432;-2.598;2024-03-23T15:42:09;17.60;74.00
56256;DHT22;57229;51.432;-2.598;2024-03-23T15:44:35;17.40;75.40
56256;DHT22;57229;51.432;-2.598;2024-03-23T15:47:01;16.50;73.00
56256;DHT22;57229;51.432;-2.598;2024-03-23T15:49:27;16.80;73.10
56256;DHT22;57229;51.432;-2.598;2024-03-23T15:51:52;17.60;70.20
56256;DHT22;57229;51.432;-2.598;2024-03-23T15:54:18;18.10;69.10
56256;DHT22;57229;51.432;-2.598;2024-03-23T15:56:44;17.80;67.80
56256;DHT22;57229;51.432;-2.598;2024-03-23T15:59:10;17.40;70.10
56256;DHT22;57229;51.432;-2.598;2024-03-23T16:01:35;16.70;70.50
56256;DHT22;57229;51.432;-2.598;2024-03-23T16:04:04;16.60;71.60
56256;DHT22;57229;51.432;-2.598;2024-03-23T16:06:29;16.80;71.80
56256;DHT22;57229;51.432;-2.598;2024-03-23T16:08:55;17.30;69.80
56256;DHT22;57229;51.432;-2.598;2024-03-23T16:11:20;17.70;68.70
56256;DHT22;57229;51.432;-2.598;2024-03-23T16:13:46;18.10;67.60
56256;DHT22;57229;51.432;-2.598;2024-03-23T16:16:12;18.60;67.50
56256;DHT22;57229;51.432;-2.598;2024-03-23T16:18:38;18.90;66.10
56256;DHT22;57229;51.432;-2.598;2024-03-23T16:21:09;18.80;65.80
56256;DHT22;57229;51.432;-2.598;2024-03-23T16:23:35;18.20;67.50